Weather at Los Ingleses Airport

Public forecast

Using degrees Celsius for public forecast. Weather courtesy of forecast.io.

Closest aviation weather report (METAR) to Los Ingleses Airport

Closest report is Ignacio Agramonte International Airport, 37.8 nm (70.1 km) NNE. Retrieved 2021/06/15 13:50 UTC (57 minutes ago):

MUCM 151350Z 09008KT 060V130 9000 SCT018 27/24 Q1018

Closest aviation forecast (TAF) to Los Ingleses Airport

Closest forecast is Ignacio Agramonte International Airport, 37.8 nm (70.1 km) NNE. Retrieved 2021/06/15 12:06 UTC (3 hours ago):

TAF MUCM 151100Z 1512/1612 VRB03KT 9000 SCT020 BKN060 TEMPO 1518/1524 VRB10KT 3400 TSRA SCT018CB BKN020